Time,TemperatureF,DewpointF,PressureIn,WindDirection,WindDirectionDegrees,WindSpeedMPH,WindSpeedGustMPH,Humidity,HourlyPrecipIn,Conditions,Clouds,dailyrainin,SolarRadiationWatts/m^2,SoftwareType,DateUTC
2013-12-20 00:02:00,27.1,18.3,30.09,SE,144,0.0,0.0,69,0.00,,,0.00,0,LWC V2.00 B727,2013-12-20 07:02:00,
2013-12-20 00:07:00,27.2,18.1,30.09,SE,144,1.0,3.0,68,0.00,,,0.00,0,LWC V2.00 B727,2013-12-20 07:07:00,
2013-12-20 00:12:00,27.1,18.0,30.09,SE,144,0.0,0.0,68,0.00,,,0.00,0,LWC V2.00 B727,2013-12-20 07:12:00,
2013-12-20 00:17:00,27.0,17.9,30.09,SE,144,2.0,3.0,68,0.00,,,0.00,0,LWC V2.00 B727,2013-12-20 07:17:00,
2013-12-20 00:22:00,27.0,17.9,30.09,SE,144,0.0,1.0,68,0.00,,,0.00,0,LWC V2.00 B727,2013-12-20 07:22:00,
2013-12-20 00:27:00,27.1,18.0,30.09,SE,144,1.0,3.0,68,0.00,,,0.00,0,LWC V2.00 B727,2013-12-20 07:27:00,
2013-12-20 00:32:00,27.2,18.1,30.09,SE,144,1.0,3.0,68,0.00,,,0.00,0,LWC V2.00 B727,2013-12-20 07:32:00,
2013-12-20 00:37:00,27.3,17.8,30.09,SE,143,0.0,2.0,67,0.00,,,0.00,0,LWC V2.00 B727,2013-12-20 07:37:00,
2013-12-20 00:42:00,27.4,17.9,30.09,SE,143,2.0,4.0,67,0.00,,,0.00,0,LWC V2.00 B727,2013-12-20 07:42:00,
2013-12-20 00:47:00,27.4,17.9,30.09,SE,142,5.0,6.0,67,0.00,,,0.00,0,LWC V2.00 B727,2013-12-20 07:47:00,
2013-12-20 00:52:00,27.4,17.6,30.09,SE,142,2.0,5.0,66,0.00,,,0.00,0,LWC V2.00 B727,2013-12-20 07:52:00,
2013-12-20 00:57:00,27.5,17.7,30.08,SE,143,3.0,3.0,66,0.00,,,0.00,0,LWC V2.00 B727,2013-12-20 07:57:00,
2013-12-20 01:02:00,27.6,17.8,30.08,SE,143,5.0,6.0,66,0.00,,,0.00,0,LWC V2.00 B727,2013-12-20 08:02:00,
2013-12-20 01:07:00,27.7,17.8,30.08,SE,142,2.0,4.0,66,0.00,,,0.00,0,LWC V2.00 B727,2013-12-20 08:07:00,
2013-12-20 01:12:00,27.7,17.5,30.08,SE,142,2.0,3.0,65,0.00,,,0.00,0,LWC V2.00 B727,2013-12-20 08:12:00,
2013-12-20 01:17:00,27.6,17.8,30.08,SE,142,4.0,4.0,66,0.00,,,0.00,0,LWC V2.00 B727,2013-12-20 08:17:00,
2013-12-20 01:22:00,27.5,17.7,30.08,SE,142,2.0,3.0,66,0.00,,,0.00,0,LWC V2.00 B727,2013-12-20 08:22:00,
2013-12-20 01:27:00,27.4,17.6,30.08,SE,142,3.0,3.0,66,0.00,,,0.00,0,LWC V2.00 B727,2013-12-20 08:27:00,
2013-12-20 01:32:00,27.3,17.5,30.08,SE,142,2.0,3.0,66,0.00,,,0.00,0,LWC V2.00 B727,2013-12-20 08:32:00,
2013-12-20 01:37:00,27.1,17.3,30.08,SE,142,4.0,5.0,66,0.00,,,0.00,0,LWC V2.00 B727,2013-12-20 08:37:00,
2013-12-20 01:42:00,27.0,17.2,30.08,SE,142,5.0,5.0,66,0.00,,,0.00,0,LWC V2.00 B727,2013-12-20 08:42:00,
2013-12-20 01:47:00,27.0,17.5,30.08,SE,125,4.0,6.0,67,0.00,,,0.00,0,LWC V2.00 B727,2013-12-20 08:47:00,
2013-12-20 01:52:00,27.0,17.2,30.09,SE,130,1.0,3.0,66,0.00,,,0.00,0,LWC V2.00 B727,2013-12-20 08:52:00,
2013-12-20 01:57:00,27.1,17.3,30.09,SE,130,2.0,4.0,66,0.00,,,0.00,0,LWC V2.00 B727,2013-12-20 08:57:00,
2013-12-20 02:02:00,27.2,17.4,30.09,SE,132,3.0,4.0,66,0.00,,,0.00,0,LWC V2.00 B727,2013-12-20 09:02:00,
2013-12-20 02:07:00,27.2,17.4,30.09,SE,137,5.0,5.0,66,0.00,,,0.00,0,LWC V2.00 B727,2013-12-20 09:07:00,
2013-12-20 02:12:00,27.3,17.5,30.08,SE,138,4.0,4.0,66,0.00,,,0.00,0,LWC V2.00 B727,2013-12-20 09:12:00,
2013-12-20 02:17:00,27.4,17.2,30.08,SE,138,4.0,6.0,65,0.00,,,0.00,0,LWC V2.00 B727,2013-12-20 09:17:00,
2013-12-20 02:22:00,27.4,17.2,30.08,SE,138,3.0,6.0,65,0.00,,,0.00,0,LWC V2.00 B727,2013-12-20 09:22:00,
2013-12-20 02:27:00,27.4,17.2,30.08,SE,137,4.0,5.0,65,0.00,,,0.00,0,LWC V2.00 B727,2013-12-20 09:27:00,
2013-12-20 02:32:00,27.4,17.2,30.08,SE,135,3.0,3.0,65,0.00,,,0.00,0,LWC V2.00 B727,2013-12-20 09:32:00,
2013-12-20 02:37:00,27.4,17.2,30.09,SE,134,2.0,4.0,65,0.00,,,0.00,0,LWC V2.00 B727,2013-12-20 09:37:00,
2013-12-20 02:42:00,27.4,17.2,30.08,SE,134,3.0,5.0,65,0.00,,,0.00,0,LWC V2.00 B727,2013-12-20 09:42:00,
2013-12-20 02:47:00,27.3,17.1,30.08,SE,134,2.0,4.0,65,0.00,,,0.00,0,LWC V2.00 B727,2013-12-20 09:47:00,
2013-12-20 02:52:00,27.2,17.0,30.08,SE,134,3.0,4.0,65,0.00,,,0.00,0,LWC V2.00 B727,2013-12-20 09:52:00,
2013-12-20 02:57:00,27.1,16.9,30.08,SE,134,4.0,4.0,65,0.00,,,0.00,0,LWC V2.00 B727,2013-12-20 09:57:00,
2013-12-20 03:02:00,27.0,16.8,30.08,SE,134,2.0,4.0,65,0.00,,,0.00,0,LWC V2.00 B727,2013-12-20 10:02:00,
2013-12-20 03:07:00,26.9,16.7,30.08,SE,134,3.0,3.0,65,0.00,,,0.00,0,LWC V2.00 B727,2013-12-20 10:07:00,
2013-12-20 03:12:00,26.7,16.9,30.08,SE,134,3.0,5.0,66,0.00,,,0.00,0,LWC V2.00 B727,2013-12-20 10:12:00,
2013-12-20 03:17:00,26.7,16.5,30.08,SE,134,0.0,2.0,65,0.00,,,0.00,0,LWC V2.00 B727,2013-12-20 10:17:00,
2013-12-20 03:22:00,26.6,16.4,30.08,SE,134,2.0,3.0,65,0.00,,,0.00,0,LWC V2.00 B727,2013-12-20 10:22:00,
2013-12-20 03:27:00,26.5,16.7,30.08,SE,134,1.0,3.0,66,0.00,,,0.00,0,LWC V2.00 B727,2013-12-20 10:27:00,
2013-12-20 03:32:00,26.3,16.5,30.08,SE,133,1.0,3.0,66,0.00,,,0.00,0,LWC V2.00 B727,2013-12-20 10:32:00,
2013-12-20 03:37:00,26.2,16.4,30.08,SE,132,1.0,3.0,66,0.00,,,0.00,0,LWC V2.00 B727,2013-12-20 10:37:00,
2013-12-20 03:42:00,26.1,16.3,30.08,SE,132,1.0,3.0,66,0.00,,,0.00,0,LWC V2.00 B727,2013-12-20 10:42:00,
2013-12-20 03:47:00,26.1,16.3,30.08,SE,132,1.0,2.0,66,0.00,,,0.00,0,LWC V2.00 B727,2013-12-20 10:47:00,
2013-12-20 03:52:00,26.0,16.6,30.08,ESE,122,2.0,4.0,67,0.00,,,0.00,0,LWC V2.00 B727,2013-12-20 10:52:00,
2013-12-20 03:57:00,26.0,16.6,30.08,ESE,122,2.0,2.0,67,0.00,,,0.00,0,LWC V2.00 B727,2013-12-20 10:57:00,
2013-12-20 04:02:00,25.8,16.7,30.07,ESE,121,3.0,4.0,68,0.00,,,0.00,0,LWC V2.00 B727,2013-12-20 11:02:00,
2013-12-20 04:07:00,25.7,16.6,30.07,ESE,119,2.0,4.0,68,0.00,,,0.00,0,LWC V2.00 B727,2013-12-20 11:07:00,
2013-12-20 04:12:00,25.6,16.5,30.07,ESE,119,2.0,3.0,68,0.00,,,0.00,0,LWC V2.00 B727,2013-12-20 11:12:00,
2013-12-20 04:17:00,25.6,16.5,30.07,ESE,119,2.0,2.0,68,0.00,,,0.00,0,LWC V2.00 B727,2013-12-20 11:17:00,
2013-12-20 04:22:00,25.5,16.4,30.07,ESE,119,3.0,4.0,68,0.00,,,0.00,0,LWC V2.00 B727,2013-12-20 11:22:00,
2013-12-20 04:27:00,25.5,16.4,30.07,ESE,119,3.0,4.0,68,0.00,,,0.00,0,LWC V2.00 B727,2013-12-20 11:27:00,
2013-12-20 04:32:00,25.6,16.5,30.07,ESE,121,4.0,5.0,68,0.00,,,0.00,0,LWC V2.00 B727,2013-12-20 11:32:00,
2013-12-20 04:37:00,25.7,16.6,30.07,ESE,121,1.0,4.0,68,0.00,,,0.00,0,LWC V2.00 B727,2013-12-20 11:37:00,
2013-12-20 04:42:00,25.9,16.8,30.07,ESE,122,5.0,5.0,68,0.00,,,0.00,0,LWC V2.00 B727,2013-12-20 11:42:00,
2013-12-20 04:47:00,26.2,16.8,30.07,ESE,123,2.0,5.0,67,0.00,,,0.00,0,LWC V2.00 B727,2013-12-20 11:47:00,
2013-12-20 04:52:00,26.4,17.0,30.07,ESE,123,1.0,3.0,67,0.00,,,0.00,0,LWC V2.00 B727,2013-12-20 11:52:00,
2013-12-20 04:57:00,26.5,17.0,30.07,ESE,123,1.0,3.0,67,0.00,,,0.00,0,LWC V2.00 B727,2013-12-20 11:57:00,
2013-12-20 05:02:00,26.6,16.8,30.07,ESE,123,1.0,2.0,66,0.00,,,0.00,0,LWC V2.00 B727,2013-12-20 12:02:00,
2013-12-20 05:07:00,26.7,16.9,30.08,ESE,123,0.0,1.0,66,0.00,,,0.00,0,LWC V2.00 B727,2013-12-20 12:07:00,
2013-12-20 05:12:00,26.7,16.9,30.07,ESE,123,0.0,0.0,66,0.00,,,0.00,0,LWC V2.00 B727,2013-12-20 12:12:00,
2013-12-20 05:17:00,26.8,17.0,30.07,ESE,123,1.0,2.0,66,0.00,,,0.00,0,LWC V2.00 B727,2013-12-20 12:17:00,
2013-12-20 05:22:00,26.8,17.0,30.07,ESE,123,0.0,0.0,66,0.00,,,0.00,0,LWC V2.00 B727,2013-12-20 12:22:00,
2013-12-20 05:27:00,26.8,17.0,30.07,ESE,123,2.0,3.0,66,0.00,,,0.00,0,LWC V2.00 B727,2013-12-20 12:27:00,
2013-12-20 05:32:00,26.8,17.0,30.07,ESE,123,1.0,2.0,66,0.00,,,0.00,0,LWC V2.00 B727,2013-12-20 12:32:00,
2013-12-20 05:37:00,26.7,16.9,30.07,ESE,123,2.0,3.0,66,0.00,,,0.00,0,LWC V2.00 B727,2013-12-20 12:37:00,
2013-12-20 05:42:00,26.6,16.8,30.07,ESE,122,2.0,3.0,66,0.00,,,0.00,0,LWC V2.00 B727,2013-12-20 12:42:00,
2013-12-20 05:47:00,26.6,16.8,30.07,ESE,122,3.0,3.0,66,0.00,,,0.00,0,LWC V2.00 B727,2013-12-20 12:47:00,
2013-12-20 05:52:00,26.7,16.5,30.07,ESE,122,1.0,2.0,65,0.00,,,0.00,0,LWC V2.00 B727,2013-12-20 12:52:00,
2013-12-20 05:57:00,26.7,16.5,30.07,ESE,122,2.0,2.0,65,0.00,,,0.00,0,LWC V2.00 B727,2013-12-20 12:57:00,
2013-12-20 06:02:00,26.7,16.5,30.07,ESE,123,3.0,4.0,65,0.00,,,0.00,0,LWC V2.00 B727,2013-12-20 13:02:00,
2013-12-20 06:07:00,27.0,16.8,30.07,SE,142,5.0,5.0,65,0.00,,,0.00,0,LWC V2.00 B727,2013-12-20 13:07:00,
2013-12-20 06:12:00,27.2,16.7,30.07,SE,144,4.0,6.0,64,0.00,,,0.00,0,LWC V2.00 B727,2013-12-20 13:12:00,
2013-12-20 06:17:00,27.5,16.9,30.07,SE,143,6.0,6.0,64,0.00,,,0.00,0,LWC V2.00 B727,2013-12-20 13:17:00,
2013-12-20 06:22:00,27.7,16.8,30.07,SE,142,3.0,5.0,63,0.00,,,0.00,0,LWC V2.00 B727,2013-12-20 13:22:00,
2013-12-20 06:27:00,27.8,16.9,30.07,SE,142,3.0,5.0,63,0.00,,,0.00,0,LWC V2.00 B727,2013-12-20 13:27:00,
2013-12-20 06:32:00,27.9,17.0,30.07,SE,140,3.0,6.0,63,0.00,,,0.00,0,LWC V2.00 B727,2013-12-20 13:32:00,
2013-12-20 06:37:00,28.0,17.1,30.07,SE,136,6.0,7.0,63,0.00,,,0.00,0,LWC V2.00 B727,2013-12-20 13:37:00,
2013-12-20 06:42:00,28.3,17.0,30.07,SE,142,3.0,8.0,62,0.00,,,0.00,0,LWC V2.00 B727,2013-12-20 13:42:00,
2013-12-20 06:47:00,28.4,17.4,30.07,SE,144,5.0,5.0,63,0.00,,,0.00,0,LWC V2.00 B727,2013-12-20 13:47:00,
2013-12-20 06:52:00,28.5,17.2,30.08,SE,144,5.0,6.0,62,0.00,,,0.00,0,LWC V2.00 B727,2013-12-20 13:52:00,
2013-12-20 06:57:00,28.6,17.3,30.08,SE,144,2.0,4.0,62,0.00,,,0.00,0,LWC V2.00 B727,2013-12-20 13:57:00,
2013-12-20 07:02:00,28.6,17.3,30.07,SE,144,4.0,4.0,62,0.00,,,0.00,0,LWC V2.00 B727,2013-12-20 14:02:00,
2013-12-20 07:07:00,28.5,16.8,30.08,SE,144,5.0,6.0,61,0.00,,,0.00,0,LWC V2.00 B727,2013-12-20 14:07:00,
2013-12-20 07:12:00,28.5,16.8,30.08,SE,144,3.0,5.0,61,0.00,,,0.00,5,LWC V2.00 B727,2013-12-20 14:12:00,
2013-12-20 07:17:00,28.5,17.2,30.08,SE,144,3.0,5.0,62,0.00,,,0.00,5,LWC V2.00 B727,2013-12-20 14:17:00,
2013-12-20 07:22:00,28.5,16.8,30.08,SE,144,2.0,6.0,61,0.00,,,0.00,12,LWC V2.00 B727,2013-12-20 14:22:00,
2013-12-20 07:27:00,28.5,17.2,30.08,SE,143,5.0,6.0,62,0.00,,,0.00,16,LWC V2.00 B727,2013-12-20 14:27:00,
2013-12-20 07:32:00,28.6,17.3,30.07,SE,142,2.0,5.0,62,0.00,,,0.00,23,LWC V2.00 B727,2013-12-20 14:32:00,
2013-12-20 07:37:00,28.7,17.4,30.07,SE,143,3.0,5.0,62,0.00,,,0.00,32,LWC V2.00 B727,2013-12-20 14:37:00,
2013-12-20 07:42:00,28.7,17.4,30.08,SE,143,4.0,6.0,62,0.00,,,0.00,30,LWC V2.00 B727,2013-12-20 14:42:00,
2013-12-20 07:47:00,28.7,17.4,30.08,SE,142,3.0,5.0,62,0.00,,,0.00,32,LWC V2.00 B727,2013-12-20 14:47:00,
2013-12-20 07:52:00,28.7,17.7,30.08,SE,141,4.0,5.0,63,0.00,,,0.00,32,LWC V2.00 B727,2013-12-20 14:52:00,
2013-12-20 07:57:00,28.8,17.8,30.08,SE,141,4.0,6.0,63,0.00,,,0.00,54,LWC V2.00 B727,2013-12-20 14:57:00,
2013-12-20 08:02:00,28.9,17.9,30.08,SE,142,3.0,5.0,63,0.00,,,0.00,56,LWC V2.00 B727,2013-12-20 15:02:00,
2013-12-20 08:07:00,29.0,17.6,30.08,SE,142,3.0,5.0,62,0.00,,,0.00,63,LWC V2.00 B727,2013-12-20 15:07:00,
2013-12-20 08:12:00,29.2,17.8,30.08,SE,143,3.0,4.0,62,0.00,,,0.00,88,LWC V2.00 B727,2013-12-20 15:12:00,
2013-12-20 08:17:00,29.4,18.0,30.08,SE,143,3.0,5.0,62,0.00,,,0.00,81,LWC V2.00 B727,2013-12-20 15:17:00,
2013-12-20 08:22:00,29.7,18.3,30.08,SE,142,1.0,3.0,62,0.00,,,0.00,114,LWC V2.00 B727,2013-12-20 15:22:00,
2013-12-20 08:27:00,30.0,18.6,30.08,SE,143,1.0,2.0,62,0.00,,,0.00,118,LWC V2.00 B727,2013-12-20 15:27:00,
2013-12-20 08:32:00,30.2,18.4,30.08,SE,143,1.0,3.0,61,0.00,,,0.00,102,LWC V2.00 B727,2013-12-20 15:32:00,
2013-12-20 08:37:00,30.5,18.7,30.08,SE,143,2.0,2.0,61,0.00,,,0.00,128,LWC V2.00 B727,2013-12-20 15:37:00,
2013-12-20 08:42:00,30.8,19.0,30.09,SE,142,0.0,1.0,61,0.00,,,0.00,107,LWC V2.00 B727,2013-12-20 15:42:00,
2013-12-20 08:47:00,31.1,18.9,30.09,SE,142,0.0,1.0,60,0.00,,,0.00,102,LWC V2.00 B727,2013-12-20 15:47:00,
2013-12-20 08:52:00,31.5,18.8,30.09,SE,143,3.0,3.0,59,0.00,,,0.00,83,LWC V2.00 B727,2013-12-20 15:52:00,
2013-12-20 08:57:00,31.9,18.4,30.09,SE,142,0.0,2.0,57,0.00,,,0.00,86,LWC V2.00 B727,2013-12-20 15:57:00,
2013-12-20 09:02:00,32.3,18.4,30.08,SE,142,1.0,3.0,56,0.00,,,0.00,125,LWC V2.00 B727,2013-12-20 16:02:00,
2013-12-20 09:07:00,32.8,18.4,30.09,SSW,192,0.0,6.0,55,0.00,,,0.00,114,LWC V2.00 B727,2013-12-20 16:07:00,
2013-12-20 09:12:00,33.3,18.9,30.10,SSW,192,1.0,1.0,55,0.00,,,0.00,114,LWC V2.00 B727,2013-12-20 16:12:00,
2013-12-20 09:17:00,33.7,19.3,30.10,SSW,192,0.0,0.0,55,0.00,,,0.00,107,LWC V2.00 B727,2013-12-20 16:17:00,
2013-12-20 09:22:00,34.0,19.1,30.10,South,190,2.0,4.0,54,0.00,,,0.00,102,LWC V2.00 B727,2013-12-20 16:22:00,
2013-12-20 09:27:00,34.4,18.6,30.10,WSW,237,3.0,3.0,52,0.00,,,0.00,100,LWC V2.00 B727,2013-12-20 16:27:00,
2013-12-20 09:32:00,34.8,18.5,30.11,SW,219,3.0,5.0,51,0.00,,,0.00,93,LWC V2.00 B727,2013-12-20 16:32:00,
2013-12-20 09:37:00,35.2,18.9,30.11,SSW,209,3.0,4.0,51,0.00,,,0.00,107,LWC V2.00 B727,2013-12-20 16:37:00,
2013-12-20 09:42:00,35.5,19.2,30.12,WSW,250,1.0,4.0,51,0.00,,,0.00,118,LWC V2.00 B727,2013-12-20 16:42:00,
2013-12-20 09:47:00,35.8,19.0,30.12,WSW,239,2.0,3.0,50,0.00,,,0.00,109,LWC V2.00 B727,2013-12-20 16:47:00,
2013-12-20 09:52:00,36.0,19.2,30.12,West,259,0.0,6.0,50,0.00,,,0.00,139,LWC V2.00 B727,2013-12-20 16:52:00,
2013-12-20 09:57:00,36.1,19.7,30.12,WNW,300,2.0,4.0,51,0.00,,,0.00,220,LWC V2.00 B727,2013-12-20 16:57:00,
2013-12-20 10:02:00,36.4,20.0,30.12,West,261,2.0,2.0,51,0.00,,,0.00,264,LWC V2.00 B727,2013-12-20 17:02:00,
2013-12-20 10:07:00,37.0,19.2,30.11,SSW,193,2.0,9.0,48,0.00,,,0.00,371,LWC V2.00 B727,2013-12-20 17:07:00,
2013-12-20 10:12:00,38.0,20.1,30.11,SSW,194,2.0,4.0,48,0.00,,,0.00,499,LWC V2.00 B727,2013-12-20 17:12:00,
2013-12-20 10:17:00,39.0,20.5,30.10,SW,236,4.0,6.0,47,0.00,,,0.00,512,LWC V2.00 B727,2013-12-20 17:17:00,
2013-12-20 10:22:00,39.6,20.0,30.11,SW,215,5.0,7.0,45,0.00,,,0.00,332,LWC V2.00 B727,2013-12-20 17:22:00,
2013-12-20 10:27:00,39.8,19.7,30.10,WSW,244,4.0,9.0,44,0.00,,,0.00,397,LWC V2.00 B727,2013-12-20 17:27:00,
2013-12-20 10:32:00,40.4,19.7,30.10,SSW,207,1.0,7.0,43,0.00,,,0.00,292,LWC V2.00 B727,2013-12-20 17:32:00,
2013-12-20 10:37:00,40.7,20.0,30.10,WSW,244,4.0,8.0,43,0.00,,,0.00,459,LWC V2.00 B727,2013-12-20 17:37:00,
2013-12-20 10:42:00,40.7,20.0,30.10,SW,235,4.0,6.0,43,0.00,,,0.00,318,LWC V2.00 B727,2013-12-20 17:42:00,
2013-12-20 10:47:00,40.8,20.1,30.10,SSW,207,7.0,10.0,43,0.00,,,0.00,633,LWC V2.00 B727,2013-12-20 17:47:00,
2013-12-20 10:52:00,41.4,20.0,30.10,SW,223,7.0,8.0,42,0.00,,,0.00,566,LWC V2.00 B727,2013-12-20 17:52:00,
2013-12-20 10:57:00,41.6,20.2,30.10,South,179,4.0,9.0,42,0.00,,,0.00,566,LWC V2.00 B727,2013-12-20 17:57:00,
2013-12-20 11:02:00,41.8,19.8,30.09,SSW,193,3.0,9.0,41,0.00,,,0.00,591,LWC V2.00 B727,2013-12-20 18:02:00,
2013-12-20 11:07:00,41.8,20.4,30.09,SSW,194,6.0,9.0,42,0.00,,,0.00,645,LWC V2.00 B727,2013-12-20 18:07:00,
2013-12-20 11:12:00,41.8,19.8,30.09,South,186,5.0,17.0,41,0.00,,,0.00,598,LWC V2.00 B727,2013-12-20 18:12:00,
2013-12-20 11:17:00,41.9,20.5,30.08,South,187,7.0,11.0,42,0.00,,,0.00,582,LWC V2.00 B727,2013-12-20 18:17:00,
2013-12-20 11:22:00,41.6,20.2,30.08,WSW,251,5.0,10.0,42,0.00,,,0.00,594,LWC V2.00 B727,2013-12-20 18:22:00,
2013-12-20 11:27:00,41.4,19.5,30.08,SW,222,4.0,9.0,41,0.00,,,0.00,566,LWC V2.00 B727,2013-12-20 18:27:00,
2013-12-20 11:32:00,41.1,19.2,30.07,SSW,203,8.0,15.0,41,0.00,,,0.00,483,LWC V2.00 B727,2013-12-20 18:32:00,
2013-12-20 11:37:00,41.0,21.3,30.07,SW,219,8.0,15.0,45,0.00,,,0.00,589,LWC V2.00 B727,2013-12-20 18:37:00,
2013-12-20 11:42:00,40.9,19.6,30.07,SW,217,4.0,9.0,42,0.00,,,0.00,584,LWC V2.00 B727,2013-12-20 18:42:00,
2013-12-20 11:47:00,41.1,19.8,30.06,South,188,9.0,12.0,42,0.00,,,0.00,592,LWC V2.00 B727,2013-12-20 18:47:00,
2013-12-20 11:52:00,41.3,19.4,30.05,SSE,165,7.0,14.0,41,0.00,,,0.00,585,LWC V2.00 B727,2013-12-20 18:52:00,
2013-12-20 11:57:00,41.5,20.1,30.04,SW,229,4.0,7.0,42,0.00,,,0.00,608,LWC V2.00 B727,2013-12-20 18:57:00,
2013-12-20 12:02:00,41.6,20.2,30.05,South,177,8.0,8.0,42,0.00,,,0.00,582,LWC V2.00 B727,2013-12-20 19:02:00,
2013-12-20 12:07:00,42.1,20.1,30.05,SSW,208,5.0,6.0,41,0.00,,,0.00,587,LWC V2.00 B727,2013-12-20 19:07:00,
2013-12-20 12:12:00,42.4,19.8,30.04,WSW,254,4.0,7.0,40,0.00,,,0.00,577,LWC V2.00 B727,2013-12-20 19:12:00,
2013-12-20 12:17:00,42.2,19.6,30.04,SW,234,7.0,7.0,40,0.00,,,0.00,578,LWC V2.00 B727,2013-12-20 19:17:00,
2013-12-20 12:22:00,42.2,19.6,30.03,SSW,198,5.0,11.0,40,0.00,,,0.00,608,LWC V2.00 B727,2013-12-20 19:22:00,
2013-12-20 12:27:00,42.2,19.6,30.03,SSW,207,12.0,15.0,40,0.00,,,0.00,582,LWC V2.00 B727,2013-12-20 19:27:00,
2013-12-20 12:32:00,42.3,19.7,30.03,WSW,248,3.0,4.0,40,0.00,,,0.00,591,LWC V2.00 B727,2013-12-20 19:32:00,
2013-12-20 12:33:00,42.4,19.8,30.03,SSW,196,7.0,11.0,40,0.00,,,0.00,631,LWC V2.00 B727,2013-12-20 19:33:00,
2013-12-20 12:38:00,42.6,20.0,30.02,SW,236,5.0,7.0,40,0.00,,,0.00,645,LWC V2.00 B727,2013-12-20 19:38:00,
2013-12-20 12:43:00,42.6,18.8,30.02,SW,232,4.0,13.0,38,0.00,,,0.00,543,LWC V2.00 B727,2013-12-20 19:43:00,
2013-12-20 12:48:00,42.5,19.9,30.02,WSW,238,7.0,11.0,40,0.00,,,0.00,570,LWC V2.00 B727,2013-12-20 19:48:00,
2013-12-20 12:53:00,42.3,19.7,30.01,SSW,199,10.0,10.0,40,0.00,,,0.00,564,LWC V2.00 B727,2013-12-20 19:53:00,
2013-12-20 12:58:00,42.1,19.5,30.01,SSW,194,1.0,7.0,40,0.00,,,0.00,555,LWC V2.00 B727,2013-12-20 19:58:00,
2013-12-20 13:03:00,42.3,19.7,30.01,WSW,241,3.0,13.0,40,0.00,,,0.00,548,LWC V2.00 B727,2013-12-20 20:03:00,
2013-12-20 13:08:00,42.2,19.0,30.00,SW,234,9.0,14.0,39,0.00,,,0.00,541,LWC V2.00 B727,2013-12-20 20:08:00,
2013-12-20 13:13:00,42.1,18.9,30.00,South,186,7.0,9.0,39,0.00,,,0.00,534,LWC V2.00 B727,2013-12-20 20:13:00,
2013-12-20 13:18:00,42.0,18.9,30.00,SSW,202,3.0,13.0,39,0.00,,,0.00,529,LWC V2.00 B727,2013-12-20 20:18:00,
2013-12-20 13:23:00,42.3,19.7,29.99,SSW,209,7.0,15.0,40,0.00,,,0.00,519,LWC V2.00 B727,2013-12-20 20:23:00,
2013-12-20 13:28:00,42.3,19.1,29.99,SW,232,3.0,8.0,39,0.00,,,0.00,499,LWC V2.00 B727,2013-12-20 20:28:00,
2013-12-20 13:33:00,42.4,19.8,29.99,WNW,282,4.0,7.0,40,0.00,,,0.00,503,LWC V2.00 B727,2013-12-20 20:33:00,
2013-12-20 13:38:00,42.6,19.4,29.99,WSW,245,4.0,9.0,39,0.00,,,0.00,497,LWC V2.00 B727,2013-12-20 20:38:00,
2013-12-20 13:43:00,42.7,19.5,29.99,SW,233,6.0,10.0,39,0.00,,,0.00,476,LWC V2.00 B727,2013-12-20 20:43:00,
2013-12-20 13:48:00,42.5,19.3,29.98,SSW,207,9.0,9.0,39,0.00,,,0.00,489,LWC V2.00 B727,2013-12-20 20:48:00,
2013-12-20 13:53:00,42.7,20.1,29.98,SSW,199,10.0,13.0,40,0.00,,,0.00,483,LWC V2.00 B727,2013-12-20 20:53:00,
2013-12-20 13:58:00,42.7,19.5,29.98,SW,217,5.0,10.0,39,0.00,,,0.00,411,LWC V2.00 B727,2013-12-20 20:58:00,
2013-12-20 14:03:00,42.6,19.4,29.98,SSW,199,4.0,7.0,39,0.00,,,0.00,473,LWC V2.00 B727,2013-12-20 21:03:00,
2013-12-20 14:08:00,42.5,19.3,29.98,SW,236,4.0,8.0,39,0.00,,,0.00,459,LWC V2.00 B727,2013-12-20 21:08:00,
2013-12-20 14:13:00,42.5,18.7,29.98,SW,215,5.0,10.0,38,0.00,,,0.00,299,LWC V2.00 B727,2013-12-20 21:13:00,
2013-12-20 14:18:00,42.4,19.2,29.98,WSW,241,4.0,10.0,39,0.00,,,0.00,359,LWC V2.00 B727,2013-12-20 21:18:00,
2013-12-20 14:23:00,42.2,19.6,29.98,South,178,3.0,10.0,40,0.00,,,0.00,476,LWC V2.00 B727,2013-12-20 21:23:00,
2013-12-20 14:28:00,42.1,18.9,29.98,SW,234,3.0,10.0,39,0.00,,,0.00,364,LWC V2.00 B727,2013-12-20 21:28:00,
2013-12-20 14:33:00,41.8,18.7,29.98,WSW,257,6.0,13.0,39,0.00,,,0.00,236,LWC V2.00 B727,2013-12-20 21:33:00,
2013-12-20 14:38:00,41.4,19.5,29.98,SSW,198,3.0,9.0,41,0.00,,,0.00,482,LWC V2.00 B727,2013-12-20 21:38:00,
2013-12-20 14:43:00,41.3,19.4,29.98,SSW,206,9.0,12.0,41,0.00,,,0.00,257,LWC V2.00 B727,2013-12-20 21:43:00,
2013-12-20 14:48:00,41.2,19.9,29.97,SSW,198,3.0,7.0,42,0.00,,,0.00,388,LWC V2.00 B727,2013-12-20 21:48:00,
2013-12-20 14:53:00,41.5,19.6,29.97,SW,221,3.0,9.0,41,0.00,,,0.00,415,LWC V2.00 B727,2013-12-20 21:53:00,
2013-12-20 14:58:00,41.8,20.4,29.97,SSW,195,5.0,7.0,42,0.00,,,0.00,355,LWC V2.00 B727,2013-12-20 21:58:00,
2013-12-20 15:03:00,41.9,20.5,29.97,SW,230,5.0,9.0,42,0.00,,,0.00,330,LWC V2.00 B727,2013-12-20 22:03:00,
2013-12-20 15:08:00,41.9,20.5,29.97,South,176,6.0,8.0,42,0.00,,,0.00,311,LWC V2.00 B727,2013-12-20 22:08:00,
2013-12-20 15:13:00,41.8,20.4,29.97,SW,236,7.0,10.0,42,0.00,,,0.00,306,LWC V2.00 B727,2013-12-20 22:13:00,
2013-12-20 15:18:00,41.6,20.2,29.97,SSW,207,7.0,7.0,42,0.00,,,0.00,283,LWC V2.00 B727,2013-12-20 22:18:00,
2013-12-20 15:23:00,41.6,20.2,29.97,SSW,198,4.0,9.0,42,0.00,,,0.00,278,LWC V2.00 B727,2013-12-20 22:23:00,
2013-12-20 15:28:00,41.6,20.2,29.97,SW,218,5.0,7.0,42,0.00,,,0.00,260,LWC V2.00 B727,2013-12-20 22:28:00,
2013-12-20 15:33:00,41.7,19.8,29.97,SSW,207,7.0,15.0,41,0.00,,,0.00,232,LWC V2.00 B727,2013-12-20 22:33:00,
2013-12-20 15:38:00,41.5,20.1,29.97,SW,226,5.0,8.0,42,0.00,,,0.00,200,LWC V2.00 B727,2013-12-20 22:38:00,
2013-12-20 15:43:00,41.3,20.0,29.97,SSW,207,6.0,8.0,42,0.00,,,0.00,185,LWC V2.00 B727,2013-12-20 22:43:00,
2013-12-20 15:48:00,41.2,20.4,29.97,SSW,209,2.0,7.0,43,0.00,,,0.00,176,LWC V2.00 B727,2013-12-20 22:48:00,
2013-12-20 15:53:00,41.2,19.9,29.97,WSW,238,5.0,7.0,42,0.00,,,0.00,139,LWC V2.00 B727,2013-12-20 22:53:00,
2013-12-20 15:58:00,41.0,19.7,29.97,SSW,195,0.0,6.0,42,0.00,,,0.00,125,LWC V2.00 B727,2013-12-20 22:58:00,
2013-12-20 16:03:00,40.9,20.1,29.97,SSW,207,2.0,12.0,43,0.00,,,0.00,98,LWC V2.00 B727,2013-12-20 23:03:00,
2013-12-20 16:08:00,40.7,20.0,29.97,WSW,244,5.0,6.0,43,0.00,,,0.00,72,LWC V2.00 B727,2013-12-20 23:08:00,
2013-12-20 16:13:00,40.4,19.7,29.97,West,271,4.0,7.0,43,0.00,,,0.00,67,LWC V2.00 B727,2013-12-20 23:13:00,
2013-12-20 16:18:00,40.2,20.0,29.97,WSW,242,3.0,7.0,44,0.00,,,0.00,32,LWC V2.00 B727,2013-12-20 23:18:00,
2013-12-20 16:23:00,39.7,19.6,29.98,SW,218,3.0,6.0,44,0.00,,,0.00,21,LWC V2.00 B727,2013-12-20 23:23:00,
2013-12-20 16:28:00,39.2,19.7,29.98,WSW,242,6.0,7.0,45,0.00,,,0.00,18,LWC V2.00 B727,2013-12-20 23:28:00,
2013-12-20 16:33:00,38.8,19.8,29.98,SSW,194,3.0,6.0,46,0.00,,,0.00,12,LWC V2.00 B727,2013-12-20 23:33:00,
2013-12-20 16:38:00,38.4,19.4,29.98,SSW,209,1.0,5.0,46,0.00,,,0.00,11,LWC V2.00 B727,2013-12-20 23:38:00,
2013-12-20 16:43:00,38.0,19.6,29.98,WSW,243,5.0,6.0,47,0.00,,,0.00,5,LWC V2.00 B727,2013-12-20 23:43:00,
2013-12-20 16:48:00,37.7,19.3,29.99,SSW,207,3.0,5.0,47,0.00,,,0.00,0,LWC V2.00 B727,2013-12-20 23:48:00,
2013-12-20 16:53:00,37.4,19.5,29.99,SW,218,2.0,4.0,48,0.00,,,0.00,0,LWC V2.00 B727,2013-12-20 23:53:00,
2013-12-20 16:58:00,37.2,19.3,29.99,SW,222,3.0,3.0,48,0.00,,,0.00,0,LWC V2.00 B727,2013-12-20 23:58:00,
2013-12-20 17:03:00,37.0,19.2,29.99,SW,223,1.0,2.0,48,0.00,,,0.00,0,LWC V2.00 B727,2013-12-21 00:03:00,
2013-12-20 17:08:00,36.8,19.5,29.99,SW,222,0.0,0.0,49,0.00,,,0.00,0,LWC V2.00 B727,2013-12-21 00:08:00,
2013-12-20 17:13:00,36.5,19.2,29.99,SW,223,0.0,2.0,49,0.00,,,0.00,0,LWC V2.00 B727,2013-12-21 00:13:00,
2013-12-20 17:18:00,36.2,18.9,30.00,SW,222,0.0,2.0,49,0.00,,,0.00,0,LWC V2.00 B727,2013-12-21 00:18:00,
2013-12-20 17:23:00,36.0,19.2,30.00,SW,222,0.0,1.0,50,0.00,,,0.00,0,LWC V2.00 B727,2013-12-21 00:23:00,
2013-12-20 17:28:00,35.6,19.3,30.01,SW,223,0.0,2.0,51,0.00,,,0.00,0,LWC V2.00 B727,2013-12-21 00:28:00,
2013-12-20 17:33:00,35.3,19.5,30.00,SW,223,0.0,0.0,52,0.00,,,0.00,0,LWC V2.00 B727,2013-12-21 00:33:00,
2013-12-20 17:38:00,34.9,19.1,30.01,SW,223,0.0,0.0,52,0.00,,,0.00,0,LWC V2.00 B727,2013-12-21 00:38:00,
2013-12-20 17:43:00,34.5,19.2,30.01,SW,222,0.0,0.0,53,0.00,,,0.00,0,LWC V2.00 B727,2013-12-21 00:43:00,
2013-12-20 17:48:00,34.2,19.3,30.01,SW,223,0.0,0.0,54,0.00,,,0.00,0,LWC V2.00 B727,2013-12-21 00:48:00,
2013-12-20 17:53:00,33.8,18.9,30.01,SW,222,0.0,0.0,54,0.00,,,0.00,0,LWC V2.00 B727,2013-12-21 00:53:00,
2013-12-20 17:58:00,33.2,18.8,30.01,SW,223,0.0,2.0,55,0.00,,,0.00,0,LWC V2.00 B727,2013-12-21 00:58:00,
2013-12-20 18:03:00,32.7,18.8,30.01,SW,222,0.0,0.0,56,0.00,,,0.00,0,LWC V2.00 B727,2013-12-21 01:03:00,
2013-12-20 18:08:00,32.2,18.7,30.01,SW,222,0.0,1.0,57,0.00,,,0.00,0,LWC V2.00 B727,2013-12-21 01:08:00,
2013-12-20 18:13:00,31.9,18.8,30.01,SW,222,0.0,0.0,58,0.00,,,0.00,0,LWC V2.00 B727,2013-12-21 01:13:00,
2013-12-20 18:18:00,31.5,18.8,30.01,SW,221,2.0,2.0,59,0.00,,,0.00,0,LWC V2.00 B727,2013-12-21 01:18:00,
2013-12-20 18:23:00,31.2,19.0,30.01,SW,221,1.0,3.0,60,0.00,,,0.00,0,LWC V2.00 B727,2013-12-21 01:23:00,
2013-12-20 18:28:00,30.8,19.0,30.01,SW,221,2.0,2.0,61,0.00,,,0.00,0,LWC V2.00 B727,2013-12-21 01:28:00,
2013-12-20 18:33:00,30.5,19.1,30.02,SW,214,0.0,1.0,62,0.00,,,0.00,0,LWC V2.00 B727,2013-12-21 01:33:00,
2013-12-20 18:38:00,30.2,18.8,30.02,SSW,213,3.0,3.0,62,0.00,,,0.00,0,LWC V2.00 B727,2013-12-21 01:38:00,
2013-12-20 18:43:00,29.8,18.8,30.02,SE,138,4.0,6.0,63,0.00,,,0.00,0,LWC V2.00 B727,2013-12-21 01:43:00,
2013-12-20 18:48:00,29.7,18.7,30.01,SE,137,2.0,3.0,63,0.00,,,0.00,0,LWC V2.00 B727,2013-12-21 01:48:00,
2013-12-20 18:53:00,29.5,18.8,30.01,SE,138,3.0,3.0,64,0.00,,,0.00,0,LWC V2.00 B727,2013-12-21 01:53:00,
2013-12-20 18:58:00,29.4,18.8,30.01,SE,139,2.0,3.0,64,0.00,,,0.00,0,LWC V2.00 B727,2013-12-21 01:58:00,
2013-12-20 19:03:00,29.3,18.7,30.01,SE,140,2.0,4.0,64,0.00,,,0.00,0,LWC V2.00 B727,2013-12-21 02:03:00,
2013-12-20 19:08:00,29.2,18.6,30.01,SE,141,2.0,6.0,64,0.00,,,0.00,0,LWC V2.00 B727,2013-12-21 02:08:00,
2013-12-20 19:13:00,29.1,18.8,30.01,SE,141,3.0,4.0,65,0.00,,,0.00,0,LWC V2.00 B727,2013-12-21 02:13:00,
2013-12-20 19:18:00,28.9,18.6,30.01,SE,141,3.0,4.0,65,0.00,,,0.00,0,LWC V2.00 B727,2013-12-21 02:18:00,
2013-12-20 19:23:00,28.8,18.5,30.00,SE,140,2.0,4.0,65,0.00,,,0.00,0,LWC V2.00 B727,2013-12-21 02:23:00,
2013-12-20 19:28:00,28.6,18.4,30.00,SE,140,1.0,4.0,65,0.00,,,0.00,0,LWC V2.00 B727,2013-12-21 02:28:00,
2013-12-20 19:33:00,28.5,18.3,30.00,SE,141,0.0,0.0,65,0.00,,,0.00,0,LWC V2.00 B727,2013-12-21 02:33:00,
2013-12-20 19:38:00,28.3,18.1,30.00,SE,141,0.0,1.0,65,0.00,,,0.00,0,LWC V2.00 B727,2013-12-21 02:38:00,
2013-12-20 19:43:00,27.9,18.4,30.00,SE,141,0.0,1.0,67,0.00,,,0.00,0,LWC V2.00 B727,2013-12-21 02:43:00,
2013-12-20 19:48:00,27.6,18.1,30.00,SE,140,0.0,0.0,67,0.00,,,0.00,0,LWC V2.00 B727,2013-12-21 02:48:00,
2013-12-20 19:53:00,27.3,18.2,30.00,SE,141,2.0,3.0,68,0.00,,,0.00,0,LWC V2.00 B727,2013-12-21 02:53:00,
2013-12-20 19:58:00,27.0,17.9,30.01,SE,141,0.0,2.0,68,0.00,,,0.00,0,LWC V2.00 B727,2013-12-21 02:58:00,
2013-12-20 20:03:00,26.9,18.1,30.00,SE,141,3.0,3.0,69,0.00,,,0.00,0,LWC V2.00 B727,2013-12-21 03:03:00,
2013-12-20 20:08:00,26.7,17.9,30.01,SE,141,4.0,6.0,69,0.00,,,0.00,0,LWC V2.00 B727,2013-12-21 03:08:00,
2013-12-20 20:13:00,26.6,18.2,30.01,SE,141,2.0,4.0,70,0.00,,,0.00,0,LWC V2.00 B727,2013-12-21 03:13:00,
2013-12-20 20:18:00,26.7,18.3,30.01,SE,141,3.0,4.0,70,0.00,,,0.00,0,LWC V2.00 B727,2013-12-21 03:18:00,
2013-12-20 20:23:00,26.7,18.3,30.01,SE,141,3.0,3.0,70,0.00,,,0.00,0,LWC V2.00 B727,2013-12-21 03:23:00,
2013-12-20 20:28:00,26.8,18.4,30.01,SE,141,3.0,4.0,70,0.00,,,0.00,0,LWC V2.00 B727,2013-12-21 03:28:00,
2013-12-20 20:33:00,26.9,18.4,30.02,SE,141,3.0,5.0,70,0.00,,,0.00,0,LWC V2.00 B727,2013-12-21 03:33:00,
2013-12-20 20:38:00,27.1,18.6,30.02,SE,141,1.0,4.0,70,0.00,,,0.00,0,LWC V2.00 B727,2013-12-21 03:38:00,
2013-12-20 20:43:00,27.2,18.7,30.01,SE,141,2.0,3.0,70,0.00,,,0.00,0,LWC V2.00 B727,2013-12-21 03:43:00,
2013-12-20 20:49:00,27.2,18.7,30.01,SE,141,2.0,3.0,70,0.00,,,0.00,0,LWC V2.00 B727,2013-12-21 03:49:00,
2013-12-20 20:54:00,27.3,18.8,30.01,SE,141,0.0,2.0,70,0.00,,,0.00,0,LWC V2.00 B727,2013-12-21 03:54:00,
2013-12-20 20:59:00,27.2,18.7,30.01,SE,140,1.0,2.0,70,0.00,,,0.00,0,LWC V2.00 B727,2013-12-21 03:59:00,
2013-12-20 21:04:00,27.1,18.6,30.01,SE,141,0.0,0.0,70,0.00,,,0.00,0,LWC V2.00 B727,2013-12-21 04:04:00,
2013-12-20 21:09:00,26.8,18.4,30.01,SE,141,0.0,1.0,70,0.00,,,0.00,0,LWC V2.00 B727,2013-12-21 04:09:00,
2013-12-20 21:14:00,26.4,18.3,30.01,SE,140,0.0,0.0,71,0.00,,,0.00,0,LWC V2.00 B727,2013-12-21 04:14:00,
2013-12-20 21:19:00,26.1,18.3,30.01,SE,141,0.0,2.0,72,0.00,,,0.00,0,LWC V2.00 B727,2013-12-21 04:19:00,
2013-12-20 21:24:00,25.9,18.5,30.01,SE,141,1.0,3.0,73,0.00,,,0.00,0,LWC V2.00 B727,2013-12-21 04:24:00,
2013-12-20 21:29:00,25.8,18.4,30.02,SE,140,2.0,3.0,73,0.00,,,0.00,0,LWC V2.00 B727,2013-12-21 04:29:00,
2013-12-20 21:34:00,25.7,18.3,30.02,SE,138,2.0,3.0,73,0.00,,,0.00,0,LWC V2.00 B727,2013-12-21 04:34:00,
2013-12-20 21:39:00,25.6,18.2,30.01,SE,138,4.0,6.0,73,0.00,,,0.00,0,LWC V2.00 B727,2013-12-21 04:39:00,
2013-12-20 21:44:00,25.6,18.2,30.02,SE,138,2.0,7.0,73,0.00,,,0.00,0,LWC V2.00 B727,2013-12-21 04:44:00,
2013-12-20 21:49:00,25.7,18.3,30.02,SE,138,4.0,4.0,73,0.00,,,0.00,0,LWC V2.00 B727,2013-12-21 04:49:00,
2013-12-20 21:54:00,25.8,18.4,30.01,SE,136,4.0,5.0,73,0.00,,,0.00,0,LWC V2.00 B727,2013-12-21 04:54:00,
2013-12-20 21:59:00,25.9,18.5,30.01,SE,137,3.0,3.0,73,0.00,,,0.00,0,LWC V2.00 B727,2013-12-21 04:59:00,
2013-12-20 22:01:00,25.9,18.5,30.01,SE,137,4.0,5.0,73,0.00,,,0.00,0,LWC V2.00 B727,2013-12-21 05:01:00,
2013-12-20 22:02:00,26.0,18.6,30.01,SE,137,5.0,5.0,73,0.00,,,0.00,0,LWC V2.00 B727,2013-12-21 05:02:00,
2013-12-20 22:07:00,26.0,18.2,30.01,SE,138,4.0,4.0,72,0.00,,,0.00,0,LWC V2.00 B727,2013-12-21 05:07:00,
2013-12-20 22:12:00,26.1,18.3,30.01,SE,139,2.0,3.0,72,0.00,,,0.00,0,LWC V2.00 B727,2013-12-21 05:12:00,
2013-12-20 22:17:00,26.1,18.7,30.01,SE,139,1.0,3.0,73,0.00,,,0.00,0,LWC V2.00 B727,2013-12-21 05:17:00,
2013-12-20 22:22:00,26.2,18.7,30.01,SE,139,3.0,4.0,73,0.00,,,0.00,0,LWC V2.00 B727,2013-12-21 05:22:00,
2013-12-20 22:27:00,26.3,18.8,30.00,SE,138,3.0,5.0,73,0.00,,,0.00,0,LWC V2.00 B727,2013-12-21 05:27:00,
2013-12-20 22:32:00,26.4,18.9,30.00,SE,139,2.0,3.0,73,0.00,,,0.00,0,LWC V2.00 B727,2013-12-21 05:32:00,
2013-12-20 22:37:00,26.5,19.0,30.00,SE,138,2.0,3.0,73,0.00,,,0.00,0,LWC V2.00 B727,2013-12-21 05:37:00,
2013-12-20 22:42:00,26.6,19.1,30.00,SE,138,2.0,5.0,73,0.00,,,0.00,0,LWC V2.00 B727,2013-12-21 05:42:00,
2013-12-20 22:47:00,26.8,19.3,30.00,SE,138,2.0,3.0,73,0.00,,,0.00,0,LWC V2.00 B727,2013-12-21 05:47:00,
2013-12-20 22:52:00,27.0,19.8,30.00,SE,138,2.0,2.0,74,0.00,,,0.00,0,LWC V2.00 B727,2013-12-21 05:52:00,
2013-12-20 22:57:00,27.2,20.0,30.00,SE,137,3.0,3.0,74,0.00,,,0.00,0,LWC V2.00 B727,2013-12-21 05:57:00,
2013-12-20 23:02:00,27.3,20.1,30.00,SE,137,4.0,5.0,74,0.00,,,0.00,0,LWC V2.00 B727,2013-12-21 06:02:00,
2013-12-20 23:07:00,27.5,20.0,29.99,SE,137,2.0,5.0,73,0.00,,,0.00,0,LWC V2.00 B727,2013-12-21 06:07:00,
2013-12-20 23:12:00,27.6,20.4,30.00,SE,137,2.0,5.0,74,0.00,,,0.00,0,LWC V2.00 B727,2013-12-21 06:12:00,
2013-12-20 23:17:00,27.8,20.6,30.00,SE,137,3.0,3.0,74,0.00,,,0.00,0,LWC V2.00 B727,2013-12-21 06:17:00,
2013-12-20 23:22:00,27.9,20.7,29.99,SE,137,3.0,5.0,74,0.00,,,0.00,0,LWC V2.00 B727,2013-12-21 06:22:00,
2013-12-20 23:27:00,28.0,20.8,29.99,SE,138,3.0,4.0,74,0.00,,,0.00,0,LWC V2.00 B727,2013-12-21 06:27:00,
2013-12-20 23:32:00,28.1,20.9,29.99,SE,138,2.0,4.0,74,0.00,,,0.00,0,LWC V2.00 B727,2013-12-21 06:32:00,
2013-12-20 23:33:00,28.2,21.0,29.99,SE,138,3.0,4.0,74,0.00,,,0.00,0,LWC V2.00 B727,2013-12-21 06:33:00,
2013-12-20 23:38:00,28.3,21.1,29.98,SE,138,2.0,3.0,74,0.00,,,0.00,0,LWC V2.00 B727,2013-12-21 06:38:00,
2013-12-20 23:43:00,28.4,21.2,29.98,SE,138,4.0,4.0,74,0.00,,,0.00,0,LWC V2.00 B727,2013-12-21 06:43:00,
2013-12-20 23:48:00,28.5,21.3,29.98,SE,139,4.0,4.0,74,0.00,,,0.00,0,LWC V2.00 B727,2013-12-21 06:48:00,
2013-12-20 23:53:00,28.6,21.4,29.98,SE,140,3.0,5.0,74,0.00,,,0.00,0,LWC V2.00 B727,2013-12-21 06:53:00,
2013-12-20 23:58:00,28.7,21.2,29.97,SE,140,2.0,4.0,73,0.00,,,0.00,0,LWC V2.00 B727,2013-12-21 06:58:00,